sensor_id;sensor_type;location;lat;lon;timestamp;temperature;humidity
16321;DHT22;8269;50.990;4.494;2023-02-17T00:02:23;11.10;99.90
16321;DHT22;8269;50.990;4.494;2023-02-17T00:04:49;11.00;99.90
16321;DHT22;8269;50.990;4.494;2023-02-17T00:07:16;11.00;99.90
16321;DHT22;8269;50.990;4.494;2023-02-17T00:09:42;11.00;99.90
16321;DHT22;8269;50.990;4.494;2023-02-17T00:12:07;11.00;99.90
16321;DHT22;8269;50.990;4.494;2023-02-17T00:14:34;11.10;99.90
16321;DHT22;8269;50.990;4.494;2023-02-17T00:17:00;11.00;99.90
16321;DHT22;8269;50.990;4.494;2023-02-17T00:19:25;11.10;99.90
16321;DHT22;8269;50.990;4.494;2023-02-17T00:21:59;11.00;99.90
16321;DHT22;8269;50.990;4.494;2023-02-17T00:24:27;11.10;99.90
16321;DHT22;8269;50.990;4.494;2023-02-17T00:26:53;11.10;99.90
16321;DHT22;8269;50.990;4.494;2023-02-17T00:29:21;11.00;99.90
16321;DHT22;8269;50.990;4.494;2023-02-17T00:31:47;11.00;99.90
16321;DHT22;8269;50.990;4.494;2023-02-17T00:34:13;11.00;99.90
16321;DHT22;8269;50.990;4.494;2023-02-17T00:36:40;11.00;99.90
16321;DHT22;8269;50.990;4.494;2023-02-17T00:39:06;11.00;99.90
16321;DHT22;8269;50.990;4.494;2023-02-17T00:41:32;11.00;99.90
16321;DHT22;8269;50.990;4.494;2023-02-17T00:43:58;11.00;99.90
16321;DHT22;8269;50.990;4.494;2023-02-17T00:46:25;11.00;99.90
16321;DHT22;8269;50.990;4.494;2023-02-17T00:48:52;10.90;99.90
16321;DHT22;8269;50.990;4.494;2023-02-17T00:51:18;10.90;99.90
16321;DHT22;8269;50.990;4.494;2023-02-17T00:53:45;10.90;99.90
16321;DHT22;8269;50.990;4.494;2023-02-17T00:56:10;10.80;99.90
16321;DHT22;8269;50.990;4.494;2023-02-17T00:58:37;10.80;99.90
16321;DHT22;8269;50.990;4.494;2023-02-17T01:01:03;10.80;99.90
16321;DHT22;8269;50.990;4.494;2023-02-17T01:03:29;10.80;99.90
16321;DHT22;8269;50.990;4.494;2023-02-17T01:05:55;10.80;99.90
16321;DHT22;8269;50.990;4.494;2023-02-17T01:08:22;10.80;99.90
16321;DHT22;8269;50.990;4.494;2023-02-17T01:10:49;10.80;99.90
16321;DHT22;8269;50.990;4.494;2023-02-17T01:13:16;10.80;99.90
16321;DHT22;8269;50.990;4.494;2023-02-17T01:15:44;10.80;99.90
16321;DHT22;8269;50.990;4.494;2023-02-17T01:18:11;10.80;99.90
16321;DHT22;8269;50.990;4.494;2023-02-17T01:20:37;10.80;99.90
16321;DHT22;8269;50.990;4.494;2023-02-17T01:23:04;10.80;99.90
16321;DHT22;8269;50.990;4.494;2023-02-17T01:25:30;10.80;99.90
16321;DHT22;8269;50.990;4.494;2023-02-17T01:27:57;10.80;99.90
16321;DHT22;8269;50.990;4.494;2023-02-17T01:30:22;10.70;99.90
16321;DHT22;8269;50.990;4.494;2023-02-17T01:32:48;10.80;99.90
16321;DHT22;8269;50.990;4.494;2023-02-17T01:35:14;10.80;99.90
16321;DHT22;8269;50.990;4.494;2023-02-17T01:37:39;10.90;99.90
16321;DHT22;8269;50.990;4.494;2023-02-17T01:40:06;10.80;99.90
16321;DHT22;8269;50.990;4.494;2023-02-17T01:42:31;10.70;99.90
16321;DHT22;8269;50.990;4.494;2023-02-17T01:52:35;10.70;99.90
16321;DHT22;8269;50.990;4.494;2023-02-17T01:55:07;10.50;99.90
16321;DHT22;8269;50.990;4.494;2023-02-17T01:57:36;10.60;99.90
16321;DHT22;8269;50.990;4.494;2023-02-17T02:00:05;10.60;99.90
16321;DHT22;8269;50.990;4.494;2023-02-17T04:08:49;10.20;99.90
16321;DHT22;8269;50.990;4.494;2023-02-17T04:30:47;10.20;99.90
16321;DHT22;8269;50.990;4.494;2023-02-17T04:35:40;10.20;99.90
16321;DHT22;8269;50.990;4.494;2023-02-17T04:40:33;10.20;99.90
16321;DHT22;8269;50.990;4.494;2023-02-17T04:45:25;10.20;99.90
16321;DHT22;8269;50.990;4.494;2023-02-17T04:47:51;10.20;99.90
16321;DHT22;8269;50.990;4.494;2023-02-17T04:50:16;10.20;99.90
16321;DHT22;8269;50.990;4.494;2023-02-17T04:52:42;10.20;99.90
16321;DHT22;8269;50.990;4.494;2023-02-17T05:00:00;10.20;99.90
16321;DHT22;8269;50.990;4.494;2023-02-17T05:02:25;10.20;99.90
16321;DHT22;8269;50.990;4.494;2023-02-17T05:04:52;10.20;99.90
16321;DHT22;8269;50.990;4.494;2023-02-17T05:09:44;10.20;99.90
16321;DHT22;8269;50.990;4.494;2023-02-17T05:12:09;10.20;99.90
16321;DHT22;8269;50.990;4.494;2023-02-17T05:14:35;10.10;99.90
16321;DHT22;8269;50.990;4.494;2023-02-17T05:17:01;10.20;99.90
16321;DHT22;8269;50.990;4.494;2023-02-17T05:19:26;10.20;99.90
16321;DHT22;8269;50.990;4.494;2023-02-17T05:21:52;10.20;99.90
16321;DHT22;8269;50.990;4.494;2023-02-17T05:24:18;10.10;99.90
16321;DHT22;8269;50.990;4.494;2023-02-17T05:26:43;10.20;99.90
16321;DHT22;8269;50.990;4.494;2023-02-17T05:29:09;10.10;99.90
16321;DHT22;8269;50.990;4.494;2023-02-17T05:31:35;10.10;99.90
16321;DHT22;8269;50.990;4.494;2023-02-17T05:34:00;10.10;99.90
16321;DHT22;8269;50.990;4.494;2023-02-17T05:36:26;10.20;99.90
16321;DHT22;8269;50.990;4.494;2023-02-17T05:38:51;10.10;99.90
16321;DHT22;8269;50.990;4.494;2023-02-17T05:41:18;10.10;99.90
16321;DHT22;8269;50.990;4.494;2023-02-17T05:43:45;10.10;99.90
16321;DHT22;8269;50.990;4.494;2023-02-17T05:46:11;10.10;99.90
16321;DHT22;8269;50.990;4.494;2023-02-17T05:48:36;10.10;99.90
16321;DHT22;8269;50.990;4.494;2023-02-17T05:51:02;10.10;99.90
16321;DHT22;8269;50.990;4.494;2023-02-17T06:05:39;10.00;99.90
16321;DHT22;8269;50.990;4.494;2023-02-17T06:08:05;9.90;99.90
16321;DHT22;8269;50.990;4.494;2023-02-17T06:10:31;10.00;99.90
16321;DHT22;8269;50.990;4.494;2023-02-17T06:12:57;10.00;99.90
16321;DHT22;8269;50.990;4.494;2023-02-17T06:15:22;9.90;99.90
16321;DHT22;8269;50.990;4.494;2023-02-17T06:17:48;10.00;99.90
16321;DHT22;8269;50.990;4.494;2023-02-17T06:20:14;10.00;99.90
16321;DHT22;8269;50.990;4.494;2023-02-17T06:22:41;10.00;99.90
16321;DHT22;8269;50.990;4.494;2023-02-17T06:25:06;10.10;99.90
16321;DHT22;8269;50.990;4.494;2023-02-17T06:27:32;10.00;99.90
16321;DHT22;8269;50.990;4.494;2023-02-17T06:29:58;10.10;99.90
16321;DHT22;8269;50.990;4.494;2023-02-17T06:32:23;10.10;99.90
16321;DHT22;8269;50.990;4.494;2023-02-17T06:34:49;10.10;99.90
16321;DHT22;8269;50.990;4.494;2023-02-17T06:37:14;10.10;99.90
16321;DHT22;8269;50.990;4.494;2023-02-17T06:39:40;10.20;99.90
16321;DHT22;8269;50.990;4.494;2023-02-17T06:42:05;10.20;99.90
16321;DHT22;8269;50.990;4.494;2023-02-17T06:44:31;10.20;99.90
16321;DHT22;8269;50.990;4.494;2023-02-17T06:46:57;10.20;99.90
16321;DHT22;8269;50.990;4.494;2023-02-17T06:49:24;10.20;99.90
16321;DHT22;8269;50.990;4.494;2023-02-17T06:51:49;10.20;99.90
16321;DHT22;8269;50.990;4.494;2023-02-17T06:54:15;10.20;99.90
16321;DHT22;8269;50.990;4.494;2023-02-17T06:56:40;10.20;99.90
16321;DHT22;8269;50.990;4.494;2023-02-17T06:59:06;10.10;99.90
16321;DHT22;8269;50.990;4.494;2023-02-17T07:01:32;10.20;99.90
16321;DHT22;8269;50.990;4.494;2023-02-17T07:03:57;10.10;99.90
16321;DHT22;8269;50.990;4.494;2023-02-17T07:06:24;10.20;99.90
16321;DHT22;8269;50.990;4.494;2023-02-17T07:08:50;10.20;99.90
16321;DHT22;8269;50.990;4.494;2023-02-17T07:11:16;10.20;99.90
16321;DHT22;8269;50.990;4.494;2023-02-17T07:16:09;10.30;99.90
16321;DHT22;8269;50.990;4.494;2023-02-17T07:21:05;10.30;99.90
16321;DHT22;8269;50.990;4.494;2023-02-17T07:23:31;10.30;99.90
16321;DHT22;8269;50.990;4.494;2023-02-17T07:26:01;10.30;99.90
16321;DHT22;8269;50.990;4.494;2023-02-17T07:28:27;10.30;99.90
16321;DHT22;8269;50.990;4.494;2023-02-17T07:33:20;10.40;99.90
16321;DHT22;8269;50.990;4.494;2023-02-17T07:38:12;10.40;99.90
16321;DHT22;8269;50.990;4.494;2023-02-17T07:40:38;10.40;99.90
16321;DHT22;8269;50.990;4.494;2023-02-17T07:43:04;10.40;99.90
16321;DHT22;8269;50.990;4.494;2023-02-17T07:45:30;10.40;99.90
16321;DHT22;8269;50.990;4.494;2023-02-17T07:47:55;10.40;99.90
16321;DHT22;8269;50.990;4.494;2023-02-17T07:50:21;10.50;99.90
16321;DHT22;8269;50.990;4.494;2023-02-17T07:52:47;10.60;99.90
16321;DHT22;8269;50.990;4.494;2023-02-17T07:55:13;10.50;99.90
16321;DHT22;8269;50.990;4.494;2023-02-17T07:57:38;10.50;99.90
16321;DHT22;8269;50.990;4.494;2023-02-17T08:00:05;10.60;99.90
16321;DHT22;8269;50.990;4.494;2023-02-17T08:02:30;10.50;99.90
16321;DHT22;8269;50.990;4.494;2023-02-17T08:04:56;10.50;99.90
16321;DHT22;8269;50.990;4.494;2023-02-17T08:12:32;10.60;99.90
16321;DHT22;8269;50.990;4.494;2023-02-17T08:25:18;10.70;99.90
16321;DHT22;8269;50.990;4.494;2023-02-17T08:27:44;10.80;99.90
16321;DHT22;8269;50.990;4.494;2023-02-17T08:30:12;10.80;99.90
16321;DHT22;8269;50.990;4.494;2023-02-17T08:32:37;10.80;99.90
16321;DHT22;8269;50.990;4.494;2023-02-17T08:35:03;10.90;99.90
16321;DHT22;8269;50.990;4.494;2023-02-17T08:37:31;10.90;99.90
16321;DHT22;8269;50.990;4.494;2023-02-17T08:39:56;10.90;99.90
16321;DHT22;8269;50.990;4.494;2023-02-17T08:42:25;11.00;99.90
16321;DHT22;8269;50.990;4.494;2023-02-17T08:44:50;11.00;99.90
16321;DHT22;8269;50.990;4.494;2023-02-17T08:47:16;11.00;99.90
16321;DHT22;8269;50.990;4.494;2023-02-17T08:49:41;11.10;99.90
16321;DHT22;8269;50.990;4.494;2023-02-17T08:52:07;11.10;99.90
16321;DHT22;8269;50.990;4.494;2023-02-17T09:01:51;11.20;99.90
16321;DHT22;8269;50.990;4.494;2023-02-17T09:04:17;11.40;99.90
16321;DHT22;8269;50.990;4.494;2023-02-17T09:06:48;11.50;99.90
16321;DHT22;8269;50.990;4.494;2023-02-17T09:09:16;11.60;99.90
16321;DHT22;8269;50.990;4.494;2023-02-17T09:11:43;11.70;99.90
16321;DHT22;8269;50.990;4.494;2023-02-17T09:14:08;11.70;99.90
16321;DHT22;8269;50.990;4.494;2023-02-17T09:16:35;11.90;99.90
16321;DHT22;8269;50.990;4.494;2023-02-17T09:19:00;11.90;99.90
16321;DHT22;8269;50.990;4.494;2023-02-17T09:21:26;12.00;99.90
16321;DHT22;8269;50.990;4.494;2023-02-17T09:23:52;12.10;99.90
16321;DHT22;8269;50.990;4.494;2023-02-17T09:26:21;12.20;99.90
16321;DHT22;8269;50.990;4.494;2023-02-17T09:28:46;12.30;99.90
16321;DHT22;8269;50.990;4.494;2023-02-17T09:31:15;12.40;99.90
16321;DHT22;8269;50.990;4.494;2023-02-17T09:33:41;12.40;99.90
16321;DHT22;8269;50.990;4.494;2023-02-17T09:36:09;12.50;99.90
16321;DHT22;8269;50.990;4.494;2023-02-17T09:38:37;12.50;99.90
16321;DHT22;8269;50.990;4.494;2023-02-17T09:41:13;12.60;99.90
16321;DHT22;8269;50.990;4.494;2023-02-17T09:43:40;12.60;99.90
16321;DHT22;8269;50.990;4.494;2023-02-17T09:46:14;12.60;99.90
16321;DHT22;8269;50.990;4.494;2023-02-17T09:48:41;12.70;99.90
16321;DHT22;8269;50.990;4.494;2023-02-17T09:51:15;12.80;99.90
16321;DHT22;8269;50.990;4.494;2023-02-17T09:54:07;12.90;99.90
16321;DHT22;8269;50.990;4.494;2023-02-17T09:56:38;13.00;99.90
16321;DHT22;8269;50.990;4.494;2023-02-17T09:59:10;13.00;99.90
16321;DHT22;8269;50.990;4.494;2023-02-17T10:01:39;13.00;99.90
16321;DHT22;8269;50.990;4.494;2023-02-17T10:04:12;12.90;99.90
16321;DHT22;8269;50.990;4.494;2023-02-17T10:06:42;12.80;99.90
16321;DHT22;8269;50.990;4.494;2023-02-17T10:09:18;12.70;99.90
16321;DHT22;8269;50.990;4.494;2023-02-17T10:12:08;12.70;99.90
16321;DHT22;8269;50.990;4.494;2023-02-17T10:17:40;12.80;99.90
16321;DHT22;8269;50.990;4.494;2023-02-17T10:20:14;12.90;99.90
16321;DHT22;8269;50.990;4.494;2023-02-17T10:22:44;13.00;99.90
16321;DHT22;8269;50.990;4.494;2023-02-17T10:25:16;13.10;99.90
16321;DHT22;8269;50.990;4.494;2023-02-17T10:27:45;13.20;99.90
16321;DHT22;8269;50.990;4.494;2023-02-17T10:30:32;13.20;99.90
16321;DHT22;8269;50.990;4.494;2023-02-17T10:33:02;13.30;99.90
16321;DHT22;8269;50.990;4.494;2023-02-17T10:36:08;13.30;99.90
16321;DHT22;8269;50.990;4.494;2023-02-17T10:41:23;13.60;99.90
16321;DHT22;8269;50.990;4.494;2023-02-17T10:43:51;13.60;99.90
16321;DHT22;8269;50.990;4.494;2023-02-17T10:46:25;13.70;99.90
16321;DHT22;8269;50.990;4.494;2023-02-17T10:48:53;13.80;99.90
16321;DHT22;8269;50.990;4.494;2023-02-17T10:51:27;13.80;99.90
16321;DHT22;8269;50.990;4.494;2023-02-17T10:54:13;13.80;99.90
16321;DHT22;8269;50.990;4.494;2023-02-17T10:56:45;13.80;99.90
16321;DHT22;8269;50.990;4.494;2023-02-17T10:59:28;13.80;99.90
16321;DHT22;8269;50.990;4.494;2023-02-17T11:01:59;13.80;99.90
16321;DHT22;8269;50.990;4.494;2023-02-17T11:04:40;13.70;99.90
16321;DHT22;8269;50.990;4.494;2023-02-17T11:07:13;13.60;99.90
16321;DHT22;8269;50.990;4.494;2023-02-17T11:09:48;13.60;99.90
16321;DHT22;8269;50.990;4.494;2023-02-17T11:12:20;13.60;99.90
16321;DHT22;8269;50.990;4.494;2023-02-17T11:14:48;13.60;99.90
16321;DHT22;8269;50.990;4.494;2023-02-17T11:17:23;13.60;99.90
16321;DHT22;8269;50.990;4.494;2023-02-17T11:19:58;13.70;99.90
16321;DHT22;8269;50.990;4.494;2023-02-17T11:22:36;13.70;99.90
16321;DHT22;8269;50.990;4.494;2023-02-17T11:27:33;13.70;99.90
16321;DHT22;8269;50.990;4.494;2023-02-17T11:30:14;13.70;99.90
16321;DHT22;8269;50.990;4.494;2023-02-17T11:32:40;13.80;99.90
16321;DHT22;8269;50.990;4.494;2023-02-17T11:35:26;13.90;99.90
16321;DHT22;8269;50.990;4.494;2023-02-17T11:38:03;13.90;99.90
16321;DHT22;8269;50.990;4.494;2023-02-17T11:40:34;13.90;99.90
16321;DHT22;8269;50.990;4.494;2023-02-17T11:43:01;13.90;99.90
16321;DHT22;8269;50.990;4.494;2023-02-17T11:46:32;14.00;99.90
16321;DHT22;8269;50.990;4.494;2023-02-17T11:56:38;13.80;99.90
16321;DHT22;8269;50.990;4.494;2023-02-17T11:59:17;13.70;99.90
16321;DHT22;8269;50.990;4.494;2023-02-17T12:02:10;13.70;99.90
16321;DHT22;8269;50.990;4.494;2023-02-17T12:24:31;13.60;99.90
16321;DHT22;8269;50.990;4.494;2023-02-17T12:27:23;13.80;99.90
16321;DHT22;8269;50.990;4.494;2023-02-17T12:38:10;13.60;99.90
16321;DHT22;8269;50.990;4.494;2023-02-17T12:43:23;13.50;99.90
16321;DHT22;8269;50.990;4.494;2023-02-17T12:45:51;13.50;99.90
16321;DHT22;8269;50.990;4.494;2023-02-17T12:48:29;13.30;99.90
16321;DHT22;8269;50.990;4.494;2023-02-17T12:53:49;13.30;99.90
16321;DHT22;8269;50.990;4.494;2023-02-17T12:58:58;13.30;99.90
16321;DHT22;8269;50.990;4.494;2023-02-17T13:01:30;13.30;99.90
16321;DHT22;8269;50.990;4.494;2023-02-17T13:03:58;13.30;99.90
16321;DHT22;8269;50.990;4.494;2023-02-17T13:11:43;13.30;99.90
16321;DHT22;8269;50.990;4.494;2023-02-17T13:16:45;13.20;99.90
16321;DHT22;8269;50.990;4.494;2023-02-17T13:19:13;13.30;99.90
16321;DHT22;8269;50.990;4.494;2023-02-17T13:21:51;13.30;99.90
16321;DHT22;8269;50.990;4.494;2023-02-17T13:24:33;13.20;99.90
16321;DHT22;8269;50.990;4.494;2023-02-17T13:27:35;13.00;99.90
16321;DHT22;8269;50.990;4.494;2023-02-17T13:30:03;13.00;99.90
16321;DHT22;8269;50.990;4.494;2023-02-17T13:32:32;12.90;99.90
16321;DHT22;8269;50.990;4.494;2023-02-17T13:35:31;12.90;99.90
16321;DHT22;8269;50.990;4.494;2023-02-17T13:37:58;12.80;99.90
16321;DHT22;8269;50.990;4.494;2023-02-17T13:42:54;12.90;99.90
16321;DHT22;8269;50.990;4.494;2023-02-17T13:45:34;12.90;99.90
16321;DHT22;8269;50.990;4.494;2023-02-17T13:50:46;13.10;99.90
16321;DHT22;8269;50.990;4.494;2023-02-17T13:53:35;13.00;99.90
16321;DHT22;8269;50.990;4.494;2023-02-17T13:56:10;13.00;99.90
16321;DHT22;8269;50.990;4.494;2023-02-17T13:58:39;12.90;99.90
16321;DHT22;8269;50.990;4.494;2023-02-17T14:01:13;12.90;99.90
16321;DHT22;8269;50.990;4.494;2023-02-17T14:06:09;12.90;99.90
16321;DHT22;8269;50.990;4.494;2023-02-17T14:08:38;12.80;99.90
16321;DHT22;8269;50.990;4.494;2023-02-17T14:11:09;12.80;99.90
16321;DHT22;8269;50.990;4.494;2023-02-17T14:13:37;12.80;99.90
16321;DHT22;8269;50.990;4.494;2023-02-17T14:16:05;12.80;99.90
16321;DHT22;8269;50.990;4.494;2023-02-17T14:18:39;12.90;99.90
16321;DHT22;8269;50.990;4.494;2023-02-17T14:21:10;12.90;99.90
16321;DHT22;8269;50.990;4.494;2023-02-17T14:23:49;12.80;99.90
16321;DHT22;8269;50.990;4.494;2023-02-17T14:26:41;12.80;99.90
16321;DHT22;8269;50.990;4.494;2023-02-17T14:29:08;12.80;99.90
16321;DHT22;8269;50.990;4.494;2023-02-17T14:31:43;12.80;99.90
16321;DHT22;8269;50.990;4.494;2023-02-17T14:34:31;13.00;99.90
16321;DHT22;8269;50.990;4.494;2023-02-17T14:37:17;12.60;99.90
16321;DHT22;8269;50.990;4.494;2023-02-17T14:39:43;12.60;99.90
16321;DHT22;8269;50.990;4.494;2023-02-17T14:42:08;12.50;99.90
16321;DHT22;8269;50.990;4.494;2023-02-17T14:44:34;12.50;99.90
16321;DHT22;8269;50.990;4.494;2023-02-17T14:46:59;12.50;99.90
16321;DHT22;8269;50.990;4.494;2023-02-17T14:49:25;12.50;99.90
16321;DHT22;8269;50.990;4.494;2023-02-17T14:51:51;12.40;99.90
16321;DHT22;8269;50.990;4.494;2023-02-17T14:54:17;12.40;99.90
16321;DHT22;8269;50.990;4.494;2023-02-17T14:57:07;12.40;99.90
16321;DHT22;8269;50.990;4.494;2023-02-17T14:59:35;12.40;99.90
16321;DHT22;8269;50.990;4.494;2023-02-17T15:02:01;12.40;99.90
16321;DHT22;8269;50.990;4.494;2023-02-17T15:04:26;12.30;99.90
16321;DHT22;8269;50.990;4.494;2023-02-17T15:06:52;12.30;99.90
16321;DHT22;8269;50.990;4.494;2023-02-17T15:09:30;12.30;99.90
16321;DHT22;8269;50.990;4.494;2023-02-17T15:11:56;12.40;99.90
16321;DHT22;8269;50.990;4.494;2023-02-17T15:14:23;12.40;99.90
16321;DHT22;8269;50.990;4.494;2023-02-17T15:16:50;12.40;99.90
16321;DHT22;8269;50.990;4.494;2023-02-17T15:19:16;12.40;99.90
16321;DHT22;8269;50.990;4.494;2023-02-17T15:21:48;12.40;99.90
16321;DHT22;8269;50.990;4.494;2023-02-17T15:26:42;12.30;99.90
16321;DHT22;8269;50.990;4.494;2023-02-17T15:29:18;12.30;99.90
16321;DHT22;8269;50.990;4.494;2023-02-17T15:31:44;12.30;99.90
16321;DHT22;8269;50.990;4.494;2023-02-17T15:34:19;12.30;99.90
16321;DHT22;8269;50.990;4.494;2023-02-17T15:36:46;12.30;99.90
16321;DHT22;8269;50.990;4.494;2023-02-17T15:39:14;12.30;99.90
16321;DHT22;8269;50.990;4.494;2023-02-17T15:41:41;12.30;99.90
16321;DHT22;8269;50.990;4.494;2023-02-17T15:44:30;12.30;99.90
16321;DHT22;8269;50.990;4.494;2023-02-17T15:46:59;12.20;99.90
16321;DHT22;8269;50.990;4.494;2023-02-17T15:49:25;12.30;99.90
16321;DHT22;8269;50.990;4.494;2023-02-17T15:51:50;12.20;99.90
16321;DHT22;8269;50.990;4.494;2023-02-17T15:54:16;12.20;99.90
16321;DHT22;8269;50.990;4.494;2023-02-17T15:59:20;12.00;99.90
16321;DHT22;8269;50.990;4.494;2023-02-17T16:01:46;12.00;99.90
16321;DHT22;8269;50.990;4.494;2023-02-17T16:04:13;11.80;99.90
16321;DHT22;8269;50.990;4.494;2023-02-17T16:06:40;11.70;99.90
16321;DHT22;8269;50.990;4.494;2023-02-17T16:09:06;11.50;99.90
16321;DHT22;8269;50.990;4.494;2023-02-17T16:11:32;11.50;99.90
16321;DHT22;8269;50.990;4.494;2023-02-17T16:13:59;11.40;99.90
16321;DHT22;8269;50.990;4.494;2023-02-17T16:16:27;11.40;99.90
16321;DHT22;8269;50.990;4.494;2023-02-17T16:19:00;11.30;99.90
16321;DHT22;8269;50.990;4.494;2023-02-17T16:23:53;11.10;99.90
16321;DHT22;8269;50.990;4.494;2023-02-17T16:26:31;11.20;99.90
16321;DHT22;8269;50.990;4.494;2023-02-17T16:36:18;11.00;99.90
16321;DHT22;8269;50.990;4.494;2023-02-17T17:00:50;10.90;99.90
16321;DHT22;8269;50.990;4.494;2023-02-17T17:05:42;11.00;99.90
16321;DHT22;8269;50.990;4.494;2023-02-17T17:13:06;11.00;99.90
16321;DHT22;8269;50.990;4.494;2023-02-17T17:15:36;11.00;99.90
16321;DHT22;8269;50.990;4.494;2023-02-17T17:18:05;11.10;99.90
16321;DHT22;8269;50.990;4.494;2023-02-17T17:20:37;11.10;99.90
16321;DHT22;8269;50.990;4.494;2023-02-17T17:23:06;11.10;99.90
16321;DHT22;8269;50.990;4.494;2023-02-17T17:25:34;11.00;99.90
16321;DHT22;8269;50.990;4.494;2023-02-17T17:28:01;11.00;99.90
16321;DHT22;8269;50.990;4.494;2023-02-17T17:30:30;11.00;99.90
16321;DHT22;8269;50.990;4.494;2023-02-17T19:57:03;10.80;99.90
16321;DHT22;8269;50.990;4.494;2023-02-17T19:59:31;10.80;99.90
16321;DHT22;8269;50.990;4.494;2023-02-17T20:01:58;10.80;99.90
16321;DHT22;8269;50.990;4.494;2023-02-17T20:04:23;10.80;99.90
16321;DHT22;8269;50.990;4.494;2023-02-17T20:06:49;10.80;99.90
16321;DHT22;8269;50.990;4.494;2023-02-17T20:09:19;10.80;99.90
16321;DHT22;8269;50.990;4.494;2023-02-17T20:11:47;10.80;99.90
16321;DHT22;8269;50.990;4.494;2023-02-17T20:14:13;10.90;99.90
16321;DHT22;8269;50.990;4.494;2023-02-17T20:16:39;10.80;99.90
16321;DHT22;8269;50.990;4.494;2023-02-17T20:19:05;10.70;99.90
16321;DHT22;8269;50.990;4.494;2023-02-17T20:21:32;10.80;99.90
16321;DHT22;8269;50.990;4.494;2023-02-17T20:23:58;10.80;99.90
16321;DHT22;8269;50.990;4.494;2023-02-17T20:26:26;10.80;99.90
16321;DHT22;8269;50.990;4.494;2023-02-17T20:28:53;10.80;99.90
16321;DHT22;8269;50.990;4.494;2023-02-17T20:31:19;10.80;99.90
16321;DHT22;8269;50.990;4.494;2023-02-17T20:33:44;10.80;99.90
16321;DHT22;8269;50.990;4.494;2023-02-17T20:36:10;10.80;99.90
16321;DHT22;8269;50.990;4.494;2023-02-17T20:38:37;10.80;99.90
16321;DHT22;8269;50.990;4.494;2023-02-17T20:41:05;10.80;99.90
16321;DHT22;8269;50.990;4.494;2023-02-17T20:43:32;10.80;99.90
16321;DHT22;8269;50.990;4.494;2023-02-17T20:45:58;10.80;99.90
16321;DHT22;8269;50.990;4.494;2023-02-17T20:48:24;10.80;99.90
16321;DHT22;8269;50.990;4.494;2023-02-17T20:50:53;10.80;99.90
16321;DHT22;8269;50.990;4.494;2023-02-17T20:53:19;10.80;99.90
16321;DHT22;8269;50.990;4.494;2023-02-17T20:55:45;10.80;99.90
16321;DHT22;8269;50.990;4.494;2023-02-17T20:58:10;10.80;99.90
16321;DHT22;8269;50.990;4.494;2023-02-17T21:00:36;10.80;99.90
16321;DHT22;8269;50.990;4.494;2023-02-17T21:03:02;10.80;99.90
16321;DHT22;8269;50.990;4.494;2023-02-17T21:05:28;10.80;99.90
16321;DHT22;8269;50.990;4.494;2023-02-17T21:07:55;10.80;99.90
16321;DHT22;8269;50.990;4.494;2023-02-17T21:10:25;10.80;99.90
16321;DHT22;8269;50.990;4.494;2023-02-17T21:12:51;10.80;99.90
16321;DHT22;8269;50.990;4.494;2023-02-17T21:15:17;10.80;99.90
16321;DHT22;8269;50.990;4.494;2023-02-17T21:17:42;10.80;99.90
16321;DHT22;8269;50.990;4.494;2023-02-17T21:20:10;10.90;99.90
16321;DHT22;8269;50.990;4.494;2023-02-17T21:22:36;10.80;99.90
16321;DHT22;8269;50.990;4.494;2023-02-17T21:25:02;10.80;99.90
16321;DHT22;8269;50.990;4.494;2023-02-17T21:27:28;10.80;99.90
16321;DHT22;8269;50.990;4.494;2023-02-17T21:29:54;10.80;99.90
16321;DHT22;8269;50.990;4.494;2023-02-17T21:32:20;10.80;99.90
16321;DHT22;8269;50.990;4.494;2023-02-17T21:34:45;10.90;99.90
16321;DHT22;8269;50.990;4.494;2023-02-17T21:37:11;10.80;99.90
16321;DHT22;8269;50.990;4.494;2023-02-17T21:39:37;10.80;99.90
16321;DHT22;8269;50.990;4.494;2023-02-17T21:42:04;10.80;99.90
16321;DHT22;8269;50.990;4.494;2023-02-17T21:44:29;10.80;99.90
16321;DHT22;8269;50.990;4.494;2023-02-17T21:47:13;10.80;99.90
16321;DHT22;8269;50.990;4.494;2023-02-17T21:49:39;10.80;99.90
16321;DHT22;8269;50.990;4.494;2023-02-17T21:52:05;10.80;99.90
16321;DHT22;8269;50.990;4.494;2023-02-17T21:54:30;10.80;99.90
16321;DHT22;8269;50.990;4.494;2023-02-17T21:56:56;10.80;99.90
16321;DHT22;8269;50.990;4.494;2023-02-17T21:59:22;10.80;99.90
16321;DHT22;8269;50.990;4.494;2023-02-17T22:01:47;10.80;99.90
16321;DHT22;8269;50.990;4.494;2023-02-17T22:04:13;10.80;99.90
16321;DHT22;8269;50.990;4.494;2023-02-17T22:06:40;10.80;99.90
16321;DHT22;8269;50.990;4.494;2023-02-17T22:09:07;10.80;99.90
16321;DHT22;8269;50.990;4.494;2023-02-17T22:11:35;10.80;99.90
16321;DHT22;8269;50.990;4.494;2023-02-17T22:14:05;10.80;99.90
16321;DHT22;8269;50.990;4.494;2023-02-17T22:16:33;10.80;99.90
16321;DHT22;8269;50.990;4.494;2023-02-17T22:18:59;10.70;99.90
16321;DHT22;8269;50.990;4.494;2023-02-17T22:21:26;10.70;99.90
16321;DHT22;8269;50.990;4.494;2023-02-17T22:23:52;10.70;99.90
16321;DHT22;8269;50.990;4.494;2023-02-17T22:26:20;10.70;99.90
16321;DHT22;8269;50.990;4.494;2023-02-17T22:28:46;10.70;99.90
16321;DHT22;8269;50.990;4.494;2023-02-17T22:31:14;10.70;99.90
16321;DHT22;8269;50.990;4.494;2023-02-17T22:33:40;10.70;99.90
16321;DHT22;8269;50.990;4.494;2023-02-17T22:36:11;10.70;99.90
16321;DHT22;8269;50.990;4.494;2023-02-17T22:38:37;10.70;99.90
16321;DHT22;8269;50.990;4.494;2023-02-17T22:41:08;10.70;99.90
16321;DHT22;8269;50.990;4.494;2023-02-17T22:43:36;10.70;99.90
16321;DHT22;8269;50.990;4.494;2023-02-17T22:46:02;10.70;99.90
16321;DHT22;8269;50.990;4.494;2023-02-17T22:48:29;10.70;99.90
16321;DHT22;8269;50.990;4.494;2023-02-17T22:50:55;10.70;99.90
16321;DHT22;8269;50.990;4.494;2023-02-17T22:53:21;10.70;99.90
16321;DHT22;8269;50.990;4.494;2023-02-17T22:55:55;10.70;99.90
16321;DHT22;8269;50.990;4.494;2023-02-17T22:58:22;10.70;99.90
16321;DHT22;8269;50.990;4.494;2023-02-17T23:00:48;10.70;99.90
16321;DHT22;8269;50.990;4.494;2023-02-17T23:03:14;10.70;99.90
16321;DHT22;8269;50.990;4.494;2023-02-17T23:05:40;10.60;99.90
16321;DHT22;8269;50.990;4.494;2023-02-17T23:08:07;10.60;99.90
16321;DHT22;8269;50.990;4.494;2023-02-17T23:10:33;10.60;99.90
16321;DHT22;8269;50.990;4.494;2023-02-17T23:13:03;10.60;99.90
16321;DHT22;8269;50.990;4.494;2023-02-17T23:15:28;10.60;99.90
16321;DHT22;8269;50.990;4.494;2023-02-17T23:18:07;10.50;99.90
16321;DHT22;8269;50.990;4.494;2023-02-17T23:20:36;10.60;99.90
16321;DHT22;8269;50.990;4.494;2023-02-17T23:23:02;10.50;99.90
16321;DHT22;8269;50.990;4.494;2023-02-17T23:25:27;10.50;99.90
16321;DHT22;8269;50.990;4.494;2023-02-17T23:27:53;10.60;99.90
16321;DHT22;8269;50.990;4.494;2023-02-17T23:30:20;10.60;99.90
16321;DHT22;8269;50.990;4.494;2023-02-17T23:32:47;10.60;99.90
16321;DHT22;8269;50.990;4.494;2023-02-17T23:35:14;10.50;99.90
16321;DHT22;8269;50.990;4.494;2023-02-17T23:37:41;10.50;99.90
16321;DHT22;8269;50.990;4.494;2023-02-17T23:40:07;10.50;99.90
16321;DHT22;8269;50.990;4.494;2023-02-17T23:42:33;10.60;99.90
16321;DHT22;8269;50.990;4.494;2023-02-17T23:44:59;10.50;99.90
16321;DHT22;8269;50.990;4.494;2023-02-17T23:47:25;10.60;99.90